Terminal Aerodrome Forecast
Issued by NWS

Home | Current Version | Previous Version | Text Only | Print | Product List | Glossary On
Versions: 1 2 3 4 5 6 7 8 9 10 11 12 13 14 15 16 17 18 19 20 21 22 23 24 25 26 27 28 29 30 31 32
000
FTUS44 KHGX 021138
TAFLBX
TAF
KLBX 021138Z 0212/0312 18005KT P6SM VCSH SCT015
     FM021600 17011KT P6SM SCT025 BKN050
     FM022000 18011G17KT P6SM VCSH BKN050
     FM030100 18006KT P6SM SCT250
     FM030500 18011KT P6SM VCTS BKN040CB BKN250
      TEMPO 0306/0309 35020G30KT 3SM TSRA BKN020CB
     FM030900 36010KT P6SM BKN050 BKN100=

USA.gov is the U.S. government's official web portal to all federal, state and local government web resources and services.